الصفحة الرئيسية
METAR-TAF:

METAR-TAF

مطار :

Grazzanise, إيطاليا

دائرة عرض: 41-03N, خط طول: 014-04E, ارتفاع: 9 متر

مراقبة الطقس الحالي

تاريخ ووقت الإصدار 1ساعة و 10 دقيقة قبل الساعة 19:55UTC
ريح 6 عقدة من الشمال/الشمال الشرقي
درجة الحرارة 18°درجة مئوية
الرطوبة 68%
ضغط 1017 hPa
الرؤية 10 كم أو أكثر
غيوم قليلة على ارتفاع 1800 قدم
غيوم متفرقة على ارتفاع 4000 قدم

METAR: LIRM 291955Z 02006KT 9999 FEW018 SCT040 18/12 Q1017 RMK BKN VIS MIN 9999 WIND THR06 02007KT BLU

زمن: 23:05 (21:05 UTC)

توقعات

تاريخ ووقت الإصدار 1ساعة و 5 دقيقة قبل الساعة 20:00UTC
التوقعات صالحة من29 الساعة 21 UTC إلى 30 الساعة 06 UTC
ريح 8 عقدة من الشمال الشرقي
الرؤية: 8000 متر
غيوم قليلة على ارتفاع 2000 قدم
غيوم متفرقة على ارتفاع 4000 قدم
مطر
مؤقت
من 30 الساعة 00 UTC إلى 30 الساعة 06 UTC
الرؤية: 5000 متر
غيوم مفككة على ارتفاع 2500 قدم
زخات من المطر

TAF: LIRM 292000Z 2921/3006 04008KT 8000 RA FEW020 SCT040 TEMPO 3000/3006 5000 SHRA BKN025

أرصاد الطقس والتوقعات من أكثر من 4000 مطار (تقارير الطقس للمطار METAR والتنبؤ بالطقس بالمطارTAF).

المحطات المتاحة هي النقط الصفراء والحمراء على الخريطة.

حرك المؤشر فوق النقطة لمعرفة اسم المحطة.

ثم انقر لمعرفة أرصاد وتوقعات الطقس.

لتغيير الخارطة: اضغط على الأزرار الخضراء مع رمز الصليب الأسود للتكبير. على الزر الأخضر مع شرطة للتصغير، أو على الأسهم الخضراء للخرائط المجاورة.


METAR-TAF: